sensor_id;sensor_type;location;lat;lon;timestamp;pressure;altitude;pressure_sealevel;temperature;humidity
69411;BME280;56604;48.652;9.194;2022-09-09T00:01:35;96022.34;;;15.10;66.60
69411;BME280;56604;48.652;9.194;2022-09-09T00:12:42;96014.78;;;15.22;66.26
69411;BME280;56604;48.652;9.194;2022-09-09T00:25:49;95997.91;;;15.56;64.75
69411;BME280;56604;48.652;9.194;2022-09-09T00:28:22;95995.97;;;15.62;64.97
69411;BME280;56604;48.652;9.194;2022-09-09T00:30:48;95992.28;;;15.63;64.51
69411;BME280;56604;48.652;9.194;2022-09-09T00:33:16;95993.03;;;15.68;64.52
69411;BME280;56604;48.652;9.194;2022-09-09T00:35:56;95995.72;;;15.82;64.59
69411;BME280;56604;48.652;9.194;2022-09-09T00:41:11;96004.22;;;15.60;65.05
69411;BME280;56604;48.652;9.194;2022-09-09T00:43:40;96002.28;;;15.47;65.28
69411;BME280;56604;48.652;9.194;2022-09-09T00:46:41;95998.06;;;15.46;65.74
69411;BME280;56604;48.652;9.194;2022-09-09T00:55:04;96016.22;;;15.34;66.98
69411;BME280;56604;48.652;9.194;2022-09-09T00:57:17;96015.50;;;15.28;67.01
69411;BME280;56604;48.652;9.194;2022-09-09T00:59:55;96016.94;;;15.20;67.44
69411;BME280;56604;48.652;9.194;2022-09-09T01:02:34;96002.03;;;15.24;67.44
69411;BME280;56604;48.652;9.194;2022-09-09T01:05:08;96013.22;;;15.21;67.25
69411;BME280;56604;48.652;9.194;2022-09-09T01:07:36;96006.66;;;15.14;67.71
69411;BME280;56604;48.652;9.194;2022-09-09T01:10:07;96008.59;;;15.08;67.83
69411;BME280;56604;48.652;9.194;2022-09-09T01:12:41;96002.88;;;15.01;68.10
69411;BME280;56604;48.652;9.194;2022-09-09T01:15:28;96006.03;;;15.03;68.21
69411;BME280;56604;48.652;9.194;2022-09-09T01:18:03;96007.94;;;14.97;68.60
69411;BME280;56604;48.652;9.194;2022-09-09T01:26:39;96013.00;;;14.94;68.50
69411;BME280;56604;48.652;9.194;2022-09-09T01:29:13;96012.22;;;14.93;68.35
69411;BME280;56604;48.652;9.194;2022-09-09T01:31:54;96017.06;;;14.86;68.30
69411;BME280;56604;48.652;9.194;2022-09-09T01:34:21;96020.53;;;14.81;68.39
69411;BME280;56604;48.652;9.194;2022-09-09T01:37:02;96017.06;;;14.86;68.67
69411;BME280;56604;48.652;9.194;2022-09-09T01:39:30;96023.13;;;14.87;67.97
69411;BME280;56604;48.652;9.194;2022-09-09T01:41:56;96018.63;;;14.87;68.13
69411;BME280;56604;48.652;9.194;2022-09-09T01:44:22;96017.38;;;14.79;68.31
69411;BME280;56604;48.652;9.194;2022-09-09T01:46:49;96018.13;;;14.85;68.73
69411;BME280;56604;48.652;9.194;2022-09-09T01:49:15;96012.56;;;14.87;68.87
69411;BME280;56604;48.652;9.194;2022-09-09T01:51:42;96020.03;;;14.79;68.88
69411;BME280;56604;48.652;9.194;2022-09-09T01:54:08;96015.25;;;14.81;69.21
69411;BME280;56604;48.652;9.194;2022-09-09T01:57:00;96021.00;;;14.89;68.65
69411;BME280;56604;48.652;9.194;2022-09-09T02:00:09;96015.63;;;14.94;68.44
69411;BME280;56604;48.652;9.194;2022-09-09T02:08:11;96025.19;;;14.95;68.77
69411;BME280;56604;48.652;9.194;2022-09-09T02:10:45;96013.81;;;14.94;68.34
69411;BME280;56604;48.652;9.194;2022-09-09T02:13:14;96017.97;;;15.00;68.07
69411;BME280;56604;48.652;9.194;2022-09-09T02:18:09;96020.19;;;14.88;68.42
69411;BME280;56604;48.652;9.194;2022-09-09T02:20:37;96018.28;;;14.94;68.48
69411;BME280;56604;48.652;9.194;2022-09-09T02:23:04;96012.00;;;14.90;68.74
69411;BME280;56604;48.652;9.194;2022-09-09T02:25:30;96020.50;;;14.87;68.66
69411;BME280;56604;48.652;9.194;2022-09-09T02:27:56;96017.84;;;14.87;69.07
69411;BME280;56604;48.652;9.194;2022-09-09T02:30:24;96009.97;;;14.81;69.08
69411;BME280;56604;48.652;9.194;2022-09-09T02:32:51;96013.69;;;14.80;68.90
69411;BME280;56604;48.652;9.194;2022-09-09T02:35:21;96009.75;;;14.78;69.80
69411;BME280;56604;48.652;9.194;2022-09-09T02:37:50;96005.00;;;14.75;69.34
69411;BME280;56604;48.652;9.194;2022-09-09T02:40:17;96001.06;;;14.72;69.98
69411;BME280;56604;48.652;9.194;2022-09-09T02:42:44;96011.69;;;14.67;69.63
69411;BME280;56604;48.652;9.194;2022-09-09T02:45:13;96020.41;;;14.68;69.64
69411;BME280;56604;48.652;9.194;2022-09-09T02:47:47;96024.41;;;14.65;70.32
69411;BME280;56604;48.652;9.194;2022-09-09T02:53:24;96023.00;;;14.73;69.35
69411;BME280;56604;48.652;9.194;2022-09-09T02:56:01;96020.59;;;14.76;69.18
69411;BME280;56604;48.652;9.194;2022-09-09T02:58:29;96011.59;;;14.77;69.38
69411;BME280;56604;48.652;9.194;2022-09-09T03:00:54;96009.53;;;14.74;70.13
69411;BME280;56604;48.652;9.194;2022-09-09T03:03:22;96010.72;;;14.58;70.01
69411;BME280;56604;48.652;9.194;2022-09-09T03:05:47;96013.94;;;14.50;70.29
69411;BME280;56604;48.652;9.194;2022-09-09T03:08:13;96020.38;;;14.44;70.70
69411;BME280;56604;48.652;9.194;2022-09-09T03:10:38;96020.38;;;14.44;70.67
69411;BME280;56604;48.652;9.194;2022-09-09T03:13:04;96013.81;;;14.36;71.30
69411;BME280;56604;48.652;9.194;2022-09-09T03:15:32;96004.69;;;14.23;70.93
69411;BME280;56604;48.652;9.194;2022-09-09T03:17:58;96008.41;;;14.17;71.56
69411;BME280;56604;48.652;9.194;2022-09-09T03:20:24;96014.50;;;14.17;71.88
69411;BME280;56604;48.652;9.194;2022-09-09T03:22:51;96017.09;;;14.23;71.73
69411;BME280;56604;48.652;9.194;2022-09-09T03:25:16;96015.56;;;14.16;71.74
69411;BME280;56604;48.652;9.194;2022-09-09T03:27:41;96018.94;;;14.22;71.71
69411;BME280;56604;48.652;9.194;2022-09-09T03:30:07;96024.88;;;14.09;71.54
69411;BME280;56604;48.652;9.194;2022-09-09T03:32:32;96020.13;;;14.06;72.43
69411;BME280;56604;48.652;9.194;2022-09-09T03:34:58;96023.41;;;13.92;72.13
69411;BME280;56604;48.652;9.194;2022-09-09T03:37:23;96026.63;;;13.89;72.86
69411;BME280;56604;48.652;9.194;2022-09-09T03:39:48;96025.56;;;13.85;72.86
69411;BME280;56604;48.652;9.194;2022-09-09T03:42:15;96028.50;;;13.84;73.06
69411;BME280;56604;48.652;9.194;2022-09-09T03:44:44;96020.53;;;13.89;72.32
69411;BME280;56604;48.652;9.194;2022-09-09T03:47:15;96018.94;;;13.88;73.02
69411;BME280;56604;48.652;9.194;2022-09-09T03:49:40;96022.44;;;13.83;73.39
69411;BME280;56604;48.652;9.194;2022-09-09T03:52:05;96026.66;;;13.79;73.56
69411;BME280;56604;48.652;9.194;2022-09-09T03:54:30;96016.66;;;13.76;73.10
69411;BME280;56604;48.652;9.194;2022-09-09T03:56:56;96019.06;;;13.72;73.75
69411;BME280;56604;48.652;9.194;2022-09-09T03:59:21;96025.69;;;13.70;73.89
69411;BME280;56604;48.652;9.194;2022-09-09T04:01:48;96018.81;;;13.69;74.30
69411;BME280;56604;48.652;9.194;2022-09-09T04:04:13;96016.97;;;13.69;74.30
69411;BME280;56604;48.652;9.194;2022-09-09T04:06:39;96021.50;;;13.59;75.09
69411;BME280;56604;48.652;9.194;2022-09-09T04:09:04;96015.72;;;13.52;75.68
69411;BME280;56604;48.652;9.194;2022-09-09T04:11:29;96016.06;;;13.84;74.90
69411;BME280;56604;48.652;9.194;2022-09-09T04:13:55;96020.53;;;13.89;74.24
69411;BME280;56604;48.652;9.194;2022-09-09T04:16:20;96016.28;;;13.93;73.91
69411;BME280;56604;48.652;9.194;2022-09-09T04:18:45;96023.38;;;13.98;73.60
69411;BME280;56604;48.652;9.194;2022-09-09T04:21:11;96018.66;;;13.94;73.98
69411;BME280;56604;48.652;9.194;2022-09-09T04:23:37;96017.06;;;13.93;73.93
69411;BME280;56604;48.652;9.194;2022-09-09T04:26:03;96018.09;;;13.98;74.36
69411;BME280;56604;48.652;9.194;2022-09-09T04:28:31;96024.91;;;14.04;74.58
69411;BME280;56604;48.652;9.194;2022-09-09T04:30:57;96011.38;;;14.10;74.05
69411;BME280;56604;48.652;9.194;2022-09-09T04:33:23;96015.28;;;14.18;73.57
69411;BME280;56604;48.652;9.194;2022-09-09T04:35:50;96013.66;;;14.22;73.66
69411;BME280;56604;48.652;9.194;2022-09-09T04:38:18;96012.81;;;14.32;73.79
69411;BME280;56604;48.652;9.194;2022-09-09T04:40:46;96023.50;;;14.46;73.33
69411;BME280;56604;48.652;9.194;2022-09-09T04:43:12;96022.94;;;14.54;73.54
69411;BME280;56604;48.652;9.194;2022-09-09T04:45:37;96020.78;;;14.56;73.04
69411;BME280;56604;48.652;9.194;2022-09-09T04:48:05;96013.00;;;14.40;73.48
69411;BME280;56604;48.652;9.194;2022-09-09T04:50:31;96014.59;;;14.36;73.47
69411;BME280;56604;48.652;9.194;2022-09-09T04:53:00;96025.16;;;14.36;73.42
69411;BME280;56604;48.652;9.194;2022-09-09T04:55:25;96022.06;;;14.29;73.56
69411;BME280;56604;48.652;9.194;2022-09-09T04:57:51;96016.22;;;14.32;73.24
69411;BME280;56604;48.652;9.194;2022-09-09T05:00:16;96019.88;;;14.36;73.64
69411;BME280;56604;48.652;9.194;2022-09-09T05:02:42;96023.09;;;14.33;74.01
69411;BME280;56604;48.652;9.194;2022-09-09T05:05:08;96016.63;;;14.45;74.33
69411;BME280;56604;48.652;9.194;2022-09-09T05:07:33;96025.09;;;14.47;73.75
69411;BME280;56604;48.652;9.194;2022-09-09T05:09:58;96028.78;;;14.46;73.67
69411;BME280;56604;48.652;9.194;2022-09-09T05:12:24;96030.09;;;14.48;73.56
69411;BME280;56604;48.652;9.194;2022-09-09T05:14:51;96032.72;;;14.48;73.72
69411;BME280;56604;48.652;9.194;2022-09-09T05:17:16;96029.28;;;14.53;73.90
69411;BME280;56604;48.652;9.194;2022-09-09T05:19:42;96032.69;;;14.58;73.49
69411;BME280;56604;48.652;9.194;2022-09-09T05:22:08;96032.81;;;14.72;74.00
69411;BME280;56604;48.652;9.194;2022-09-09T05:24:33;96031.53;;;14.94;73.05
69411;BME280;56604;48.652;9.194;2022-09-09T05:26:59;96032.00;;;15.44;72.05
69411;BME280;56604;48.652;9.194;2022-09-09T05:29:26;96038.34;;;15.86;70.14
69411;BME280;56604;48.652;9.194;2022-09-09T05:31:52;96023.06;;;15.96;69.26
69411;BME280;56604;48.652;9.194;2022-09-09T05:34:17;96020.00;;;16.08;69.21
69411;BME280;56604;48.652;9.194;2022-09-09T05:36:43;96026.63;;;16.71;67.71
69411;BME280;56604;48.652;9.194;2022-09-09T05:39:08;96029.31;;;17.40;65.25
69411;BME280;56604;48.652;9.194;2022-09-09T05:41:34;96031.25;;;17.98;63.21
69411;BME280;56604;48.652;9.194;2022-09-09T05:44:01;96041.06;;;18.12;61.59
69411;BME280;56604;48.652;9.194;2022-09-09T05:46:26;96039.78;;;17.87;62.08
69411;BME280;56604;48.652;9.194;2022-09-09T05:48:52;96041.78;;;18.26;62.14
69411;BME280;56604;48.652;9.194;2022-09-09T05:51:21;96050.66;;;17.63;62.83
69411;BME280;56604;48.652;9.194;2022-09-09T05:53:47;96050.47;;;17.04;64.95
69411;BME280;56604;48.652;9.194;2022-09-09T05:56:16;96047.50;;;16.78;65.97
69411;BME280;56604;48.652;9.194;2022-09-09T05:58:45;96058.97;;;16.59;67.29
69411;BME280;56604;48.652;9.194;2022-09-09T06:01:19;96052.47;;;16.66;67.50
69411;BME280;56604;48.652;9.194;2022-09-09T06:03:45;96052.94;;;16.54;68.00
69411;BME280;56604;48.652;9.194;2022-09-09T06:06:17;96053.84;;;16.63;67.52
69411;BME280;56604;48.652;9.194;2022-09-09T06:08:44;96051.19;;;16.63;68.34
69411;BME280;56604;48.652;9.194;2022-09-09T06:11:12;96047.44;;;16.64;68.30
69411;BME280;56604;48.652;9.194;2022-09-09T06:13:38;96044.53;;;16.66;68.29
69411;BME280;56604;48.652;9.194;2022-09-09T06:16:06;96045.47;;;16.56;68.50
69411;BME280;56604;48.652;9.194;2022-09-09T06:18:33;96048.75;;;16.67;68.19
69411;BME280;56604;48.652;9.194;2022-09-09T06:21:00;96051.81;;;16.74;68.22
69411;BME280;56604;48.652;9.194;2022-09-09T06:23:26;96051.56;;;16.89;67.89
69411;BME280;56604;48.652;9.194;2022-09-09T06:26:01;96048.13;;;16.89;67.23
69411;BME280;56604;48.652;9.194;2022-09-09T06:28:26;96040.94;;;17.17;67.18
69411;BME280;56604;48.652;9.194;2022-09-09T06:30:58;96052.06;;;16.91;67.80
69411;BME280;56604;48.652;9.194;2022-09-09T06:33:23;96050.56;;;17.13;67.02
69411;BME280;56604;48.652;9.194;2022-09-09T06:35:52;96051.56;;;17.17;66.86
69411;BME280;56604;48.652;9.194;2022-09-09T06:38:18;96055.03;;;17.17;66.95
69411;BME280;56604;48.652;9.194;2022-09-09T06:40:51;96050.91;;;17.25;67.20
69411;BME280;56604;48.652;9.194;2022-09-09T06:43:16;96057.53;;;17.50;65.70
69411;BME280;56604;48.652;9.194;2022-09-09T06:45:42;96050.84;;;17.39;66.53
69411;BME280;56604;48.652;9.194;2022-09-09T06:48:07;96059.72;;;17.48;66.62
69411;BME280;56604;48.652;9.194;2022-09-09T06:50:34;96056.56;;;17.60;65.88
69411;BME280;56604;48.652;9.194;2022-09-09T06:52:59;96056.06;;;18.08;65.22
69411;BME280;56604;48.652;9.194;2022-09-09T06:55:25;96056.94;;;18.39;63.83
69411;BME280;56604;48.652;9.194;2022-09-09T06:57:50;96053.50;;;18.93;62.95
69411;BME280;56604;48.652;9.194;2022-09-09T07:00:17;96053.25;;;19.12;61.86
69411;BME280;56604;48.652;9.194;2022-09-09T07:02:43;96049.75;;;19.02;61.67
69411;BME280;56604;48.652;9.194;2022-09-09T07:05:09;96055.72;;;19.48;60.20
69411;BME280;56604;48.652;9.194;2022-09-09T07:07:35;96053.09;;;20.35;57.76
69411;BME280;56604;48.652;9.194;2022-09-09T07:10:00;96049.66;;;20.69;55.98
69411;BME280;56604;48.652;9.194;2022-09-09T07:12:25;96046.41;;;20.93;55.67
69411;BME280;56604;48.652;9.194;2022-09-09T07:14:51;96053.72;;;20.66;55.96
69411;BME280;56604;48.652;9.194;2022-09-09T07:17:16;96062.06;;;20.39;56.89
69411;BME280;56604;48.652;9.194;2022-09-09T07:19:41;96068.50;;;20.03;58.96
69411;BME280;56604;48.652;9.194;2022-09-09T07:22:08;96056.25;;;20.54;57.71
69411;BME280;56604;48.652;9.194;2022-09-09T07:24:34;96047.75;;;20.35;57.09
69411;BME280;56604;48.652;9.194;2022-09-09T07:26:59;96049.19;;;21.05;56.09
69411;BME280;56604;48.652;9.194;2022-09-09T07:29:24;96043.16;;;21.17;56.28
69411;BME280;56604;48.652;9.194;2022-09-09T07:31:50;96050.59;;;21.03;56.01
69411;BME280;56604;48.652;9.194;2022-09-09T07:34:15;96059.63;;;20.89;56.22
69411;BME280;56604;48.652;9.194;2022-09-09T07:36:40;96059.28;;;20.18;57.56
69411;BME280;56604;48.652;9.194;2022-09-09T07:39:09;96060.66;;;19.81;58.24
69411;BME280;56604;48.652;9.194;2022-09-09T07:41:39;96056.41;;;20.66;57.02
69411;BME280;56604;48.652;9.194;2022-09-09T07:46:32;96061.50;;;22.50;52.09
69411;BME280;56604;48.652;9.194;2022-09-09T07:48:57;96058.53;;;23.83;48.68
69411;BME280;56604;48.652;9.194;2022-09-09T07:51:29;96066.50;;;24.19;48.32
69411;BME280;56604;48.652;9.194;2022-09-09T07:53:57;96072.69;;;24.48;47.35
69411;BME280;56604;48.652;9.194;2022-09-09T07:56:23;96079.13;;;23.91;47.86
69411;BME280;56604;48.652;9.194;2022-09-09T07:58:51;96071.88;;;24.07;48.08
69411;BME280;56604;48.652;9.194;2022-09-09T08:01:18;96077.31;;;23.95;48.33
69411;BME280;56604;48.652;9.194;2022-09-09T08:03:45;96087.41;;;23.86;48.73
69411;BME280;56604;48.652;9.194;2022-09-09T08:06:12;96080.00;;;23.70;49.91
69411;BME280;56604;48.652;9.194;2022-09-09T08:08:38;96087.47;;;24.42;48.18
69411;BME280;56604;48.652;9.194;2022-09-09T08:11:09;96087.09;;;24.56;46.68
69411;BME280;56604;48.652;9.194;2022-09-09T08:13:35;96090.38;;;24.93;45.78
69411;BME280;56604;48.652;9.194;2022-09-09T08:16:09;96082.47;;;23.26;49.22
69411;BME280;56604;48.652;9.194;2022-09-09T08:18:35;96079.88;;;23.67;49.10
69411;BME280;56604;48.652;9.194;2022-09-09T08:21:11;96094.81;;;22.61;51.97
69411;BME280;56604;48.652;9.194;2022-09-09T08:23:41;96095.22;;;23.17;51.51
69411;BME280;56604;48.652;9.194;2022-09-09T08:26:12;96093.38;;;24.07;49.11
69411;BME280;56604;48.652;9.194;2022-09-09T08:28:38;96098.56;;;24.00;47.67
69411;BME280;56604;48.652;9.194;2022-09-09T08:31:15;96101.91;;;23.48;50.46
69411;BME280;56604;48.652;9.194;2022-09-09T08:33:42;96098.34;;;23.93;49.29
69411;BME280;56604;48.652;9.194;2022-09-09T08:36:10;96093.75;;;24.46;47.39
69411;BME280;56604;48.652;9.194;2022-09-09T08:38:36;96105.03;;;24.96;46.08
69411;BME280;56604;48.652;9.194;2022-09-09T08:43:47;96095.88;;;24.40;47.30
69411;BME280;56604;48.652;9.194;2022-09-09T08:46:25;96101.34;;;24.44;47.45
69411;BME280;56604;48.652;9.194;2022-09-09T08:49:06;96100.59;;;25.31;44.90
69411;BME280;56604;48.652;9.194;2022-09-09T08:51:39;96110.81;;;25.26;45.28
69411;BME280;56604;48.652;9.194;2022-09-09T08:54:04;96118.94;;;23.89;46.92
69411;BME280;56604;48.652;9.194;2022-09-09T08:56:31;96113.72;;;24.61;46.15
69411;BME280;56604;48.652;9.194;2022-09-09T08:59:00;96121.13;;;23.13;49.32
69411;BME280;56604;48.652;9.194;2022-09-09T09:01:45;96111.09;;;23.59;49.02
69411;BME280;56604;48.652;9.194;2022-09-09T09:04:41;96109.41;;;22.84;50.47
69411;BME280;56604;48.652;9.194;2022-09-09T09:07:29;96108.84;;;23.37;49.70
69411;BME280;56604;48.652;9.194;2022-09-09T09:12:47;96097.91;;;25.47;46.85
69411;BME280;56604;48.652;9.194;2022-09-09T09:15:20;96086.72;;;26.35;44.31
69411;BME280;56604;48.652;9.194;2022-09-09T09:17:46;96093.41;;;26.41;43.73
69411;BME280;56604;48.652;9.194;2022-09-09T09:20:15;96105.72;;;24.92;44.19
69411;BME280;56604;48.652;9.194;2022-09-09T09:22:50;96093.56;;;25.78;45.01
69411;BME280;56604;48.652;9.194;2022-09-09T09:25:31;96096.59;;;27.09;41.90
69411;BME280;56604;48.652;9.194;2022-09-09T09:28:03;96089.22;;;28.05;40.33
69411;BME280;56604;48.652;9.194;2022-09-09T09:30:39;96090.97;;;28.51;39.57
69411;BME280;56604;48.652;9.194;2022-09-09T09:33:46;96084.47;;;26.57;41.68
69411;BME280;56604;48.652;9.194;2022-09-09T09:36:12;96085.31;;;26.22;37.31
69411;BME280;56604;48.652;9.194;2022-09-09T09:38:52;96082.19;;;26.20;36.56
69411;BME280;56604;48.652;9.194;2022-09-09T09:41:49;96082.38;;;24.81;38.42
69411;BME280;56604;48.652;9.194;2022-09-09T09:44:27;96076.88;;;24.21;39.40
69411;BME280;56604;48.652;9.194;2022-09-09T09:46:53;96078.56;;;24.26;40.47
69411;BME280;56604;48.652;9.194;2022-09-09T09:49:18;96082.81;;;24.83;38.43
69411;BME280;56604;48.652;9.194;2022-09-09T09:51:44;96079.03;;;24.15;41.85
69411;BME280;56604;48.652;9.194;2022-09-09T09:56:39;96072.50;;;23.64;44.98
69411;BME280;56604;48.652;9.194;2022-09-09T09:59:05;96066.59;;;23.83;44.81
69411;BME280;56604;48.652;9.194;2022-09-09T10:01:32;96068.13;;;23.96;44.36
69411;BME280;56604;48.652;9.194;2022-09-09T10:06:41;96059.09;;;23.15;46.93
69411;BME280;56604;48.652;9.194;2022-09-09T10:09:23;96058.44;;;22.60;49.98
69411;BME280;56604;48.652;9.194;2022-09-09T10:14:40;96050.50;;;23.33;48.64
69411;BME280;56604;48.652;9.194;2022-09-09T10:22:28;96039.63;;;24.48;44.35
69411;BME280;56604;48.652;9.194;2022-09-09T10:28:33;96033.38;;;24.87;44.65
69411;BME280;56604;48.652;9.194;2022-09-09T10:34:05;96032.56;;;23.87;45.14
69411;BME280;56604;48.652;9.194;2022-09-09T10:36:43;96031.06;;;24.30;44.82
69411;BME280;56604;48.652;9.194;2022-09-09T10:42:06;96036.84;;;24.88;41.41
69411;BME280;56604;48.652;9.194;2022-09-09T10:47:21;96038.72;;;23.87;39.38
69411;BME280;56604;48.652;9.194;2022-09-09T10:55:24;96031.72;;;23.21;41.92
69411;BME280;56604;48.652;9.194;2022-09-09T10:57:53;96035.56;;;22.75;44.02
69411;BME280;56604;48.652;9.194;2022-09-09T11:00:34;96018.31;;;23.09;44.68
69411;BME280;56604;48.652;9.194;2022-09-09T11:03:02;96031.41;;;22.65;45.03
69411;BME280;56604;48.652;9.194;2022-09-09T11:05:44;96033.19;;;22.73;46.06
69411;BME280;56604;48.652;9.194;2022-09-09T11:08:20;96025.22;;;21.77;44.90
69411;BME280;56604;48.652;9.194;2022-09-09T11:16:33;96022.72;;;20.74;49.11
69411;BME280;56604;48.652;9.194;2022-09-09T11:19:05;96049.34;;;21.00;53.45
69411;BME280;56604;48.652;9.194;2022-09-09T11:21:42;96056.88;;;20.34;56.66
69411;BME280;56604;48.652;9.194;2022-09-09T11:24:35;96077.66;;;19.45;59.31
69411;BME280;56604;48.652;9.194;2022-09-09T11:27:11;96084.66;;;19.32;62.31
69411;BME280;56604;48.652;9.194;2022-09-09T11:40:41;96070.00;;;19.61;62.33
69411;BME280;56604;48.652;9.194;2022-09-09T11:43:18;96068.84;;;20.19;59.26
69411;BME280;56604;48.652;9.194;2022-09-09T11:45:52;96055.31;;;20.50;58.09
69411;BME280;56604;48.652;9.194;2022-09-09T11:51:08;96054.38;;;20.63;56.08
69411;BME280;56604;48.652;9.194;2022-09-09T11:53:35;96050.28;;;20.57;56.86
69411;BME280;56604;48.652;9.194;2022-09-09T11:56:07;96055.13;;;20.73;55.10
69411;BME280;56604;48.652;9.194;2022-09-09T11:58:38;96062.22;;;20.34;54.18
69411;BME280;56604;48.652;9.194;2022-09-09T12:01:25;96054.53;;;20.58;53.05
69411;BME280;56604;48.652;9.194;2022-09-09T12:04:10;96062.06;;;20.48;55.54
69411;BME280;56604;48.652;9.194;2022-09-09T12:06:50;96068.22;;;20.22;53.36
69411;BME280;56604;48.652;9.194;2022-09-09T12:09:43;96070.41;;;20.63;51.56
69411;BME280;56604;48.652;9.194;2022-09-09T12:19:41;96051.72;;;22.33;47.95
69411;BME280;56604;48.652;9.194;2022-09-09T12:22:27;96055.78;;;21.97;48.74
69411;BME280;56604;48.652;9.194;2022-09-09T12:27:39;96042.97;;;21.82;45.96
69411;BME280;56604;48.652;9.194;2022-09-09T12:30:15;96044.41;;;21.79;47.82
69411;BME280;56604;48.652;9.194;2022-09-09T12:32:41;96034.22;;;21.72;47.40
69411;BME280;56604;48.652;9.194;2022-09-09T12:35:26;96028.63;;;21.86;47.37
69411;BME280;56604;48.652;9.194;2022-09-09T12:37:59;96028.22;;;21.96;46.74
69411;BME280;56604;48.652;9.194;2022-09-09T12:40:27;96043.63;;;21.78;47.54
69411;BME280;56604;48.652;9.194;2022-09-09T12:42:53;96038.72;;;21.30;48.51
69411;BME280;56604;48.652;9.194;2022-09-09T12:45:25;96028.47;;;21.62;49.00
69411;BME280;56604;48.652;9.194;2022-09-09T12:47:57;96023.41;;;21.69;48.17
69411;BME280;56604;48.652;9.194;2022-09-09T12:50:27;96027.16;;;21.68;48.26
69411;BME280;56604;48.652;9.194;2022-09-09T12:52:58;96029.81;;;21.97;48.32
69411;BME280;56604;48.652;9.194;2022-09-09T12:55:28;96029.81;;;21.97;47.08
69411;BME280;56604;48.652;9.194;2022-09-09T12:57:55;96031.56;;;21.93;47.24
69411;BME280;56604;48.652;9.194;2022-09-09T13:00:23;96026.50;;;22.13;47.20
69411;BME280;56604;48.652;9.194;2022-09-09T13:02:53;96022.94;;;22.63;47.32
69411;BME280;56604;48.652;9.194;2022-09-09T13:05:22;96028.94;;;22.60;45.49
69411;BME280;56604;48.652;9.194;2022-09-09T13:07:48;96027.28;;;22.13;45.36
69411;BME280;56604;48.652;9.194;2022-09-09T13:10:21;96031.09;;;21.70;46.24
69411;BME280;56604;48.652;9.194;2022-09-09T13:12:47;96026.13;;;22.02;45.99
69411;BME280;56604;48.652;9.194;2022-09-09T13:15:20;96027.25;;;21.80;46.14
69411;BME280;56604;48.652;9.194;2022-09-09T13:17:54;96030.31;;;21.70;46.00
69411;BME280;56604;48.652;9.194;2022-09-09T13:20:21;96017.25;;;21.47;46.49
69411;BME280;56604;48.652;9.194;2022-09-09T13:22:48;96027.03;;;21.64;47.00
69411;BME280;56604;48.652;9.194;2022-09-09T13:25:21;96007.47;;;21.93;47.24
69411;BME280;56604;48.652;9.194;2022-09-09T13:28:02;96011.25;;;21.71;46.41
69411;BME280;56604;48.652;9.194;2022-09-09T13:35:56;96008.25;;;21.52;48.33
69411;BME280;56604;48.652;9.194;2022-09-09T13:38:23;96015.56;;;21.64;48.46
69411;BME280;56604;48.652;9.194;2022-09-09T13:41:07;96011.06;;;21.76;48.81
69411;BME280;56604;48.652;9.194;2022-09-09T13:43:43;96015.44;;;21.60;48.57
69411;BME280;56604;48.652;9.194;2022-09-09T13:48:55;96000.53;;;21.50;48.76
69411;BME280;56604;48.652;9.194;2022-09-09T13:51:28;96007.84;;;21.41;47.52
69411;BME280;56604;48.652;9.194;2022-09-09T13:53:54;96003.16;;;21.38;47.29
69411;BME280;56604;48.652;9.194;2022-09-09T13:56:20;96000.47;;;21.38;46.53
69411;BME280;56604;48.652;9.194;2022-09-09T13:58:45;95996.81;;;21.34;45.62
69411;BME280;56604;48.652;9.194;2022-09-09T14:01:12;95994.94;;;21.43;46.70
69411;BME280;56604;48.652;9.194;2022-09-09T14:03:38;96002.81;;;21.31;46.36
69411;BME280;56604;48.652;9.194;2022-09-09T14:06:03;95992.88;;;21.40;45.88
69411;BME280;56604;48.652;9.194;2022-09-09T14:08:28;95996.22;;;21.37;46.25
69411;BME280;56604;48.652;9.194;2022-09-09T14:11:02;95993.88;;;21.56;46.44
69411;BME280;56604;48.652;9.194;2022-09-09T14:13:27;95991.84;;;21.53;45.45
69411;BME280;56604;48.652;9.194;2022-09-09T14:15:53;95995.06;;;21.47;45.93
69411;BME280;56604;48.652;9.194;2022-09-09T14:18:18;95990.63;;;21.51;46.27
69411;BME280;56604;48.652;9.194;2022-09-09T14:20:44;95993.69;;;21.62;45.43
69411;BME280;56604;48.652;9.194;2022-09-09T14:23:11;95987.16;;;21.50;44.54
69411;BME280;56604;48.652;9.194;2022-09-09T14:25:40;95990.41;;;21.77;45.68
69411;BME280;56604;48.652;9.194;2022-09-09T14:28:08;95991.81;;;21.83;44.39
69411;BME280;56604;48.652;9.194;2022-09-09T14:30:33;95989.56;;;21.85;44.33
69411;BME280;56604;48.652;9.194;2022-09-09T14:33:00;95979.72;;;21.98;43.54
69411;BME280;56604;48.652;9.194;2022-09-09T14:35:25;95985.00;;;21.86;42.57
69411;BME280;56604;48.652;9.194;2022-09-09T14:37:50;95999.38;;;21.81;42.82
69411;BME280;56604;48.652;9.194;2022-09-09T14:40:16;95999.91;;;21.74;42.91
69411;BME280;56604;48.652;9.194;2022-09-09T14:42:42;95998.66;;;21.72;43.30
69411;BME280;56604;48.652;9.194;2022-09-09T14:45:07;95994.53;;;21.53;43.71
69411;BME280;56604;48.652;9.194;2022-09-09T14:47:33;95994.53;;;21.53;43.82
69411;BME280;56604;48.652;9.194;2022-09-09T14:49:58;95991.59;;;21.46;42.84
69411;BME280;56604;48.652;9.194;2022-09-09T14:52:26;95984.69;;;21.45;43.03
69411;BME280;56604;48.652;9.194;2022-09-09T14:54:51;95984.03;;;21.48;43.34
69411;BME280;56604;48.652;9.194;2022-09-09T14:57:16;95984.84;;;21.40;42.03
69411;BME280;56604;48.652;9.194;2022-09-09T14:59:42;95987.50;;;21.49;42.27
69411;BME280;56604;48.652;9.194;2022-09-09T15:02:08;95976.41;;;21.38;42.65
69411;BME280;56604;48.652;9.194;2022-09-09T15:04:34;95983.66;;;21.29;42.51
69411;BME280;56604;48.652;9.194;2022-09-09T15:06:59;95990.16;;;21.19;43.42
69411;BME280;56604;48.652;9.194;2022-09-09T15:09:24;95990.66;;;21.13;43.07
69411;BME280;56604;48.652;9.194;2022-09-09T15:11:50;95995.06;;;21.08;43.67
69411;BME280;56604;48.652;9.194;2022-09-09T15:14:15;95997.84;;;20.91;43.76